Hlavní strana
METAR-TAF:

METAR-TAF

Letiště :

Rock Hill/York County Airport (Bryant Field)

Rock Hill, Jižní Karolína, Spojené státy americké

zeměpisná šířka: 34-59-02N, zeměpisná délka: 081-03-21W, výška: 204 m

Aktuální stav počasí

Zpráva byla vytvořena před 20 minutami, v 02:54 UTC
Západní vítr 4 kt
Teplota 4°C
Vlhkost vzduchu 93%
Tlak 1019 hPa
Viditelnost: 4.8 km
Skoro jasno ve výšce 500 ft
Oblačno až skoro zataženo ve výšce 2500 ft
Zataženo ve výšce 3000 ft
slabý déšť, kouřmo

METAR: KUZA 190254Z AUTO 26004KT 3SM -RA BR FEW005 BKN025 OVC030 04/03 A3010 RMK AO2 SLP197 P0001 60003 T00440033 58014

Čas: 22:14 (03:14 UTC)


TAF: chybějící

Stav a předpovědi počasí z více než 4 000 letišť (zprávy METAR a TAF).

Červené a žluté tečky na mapě představují dostupné meteorologické stanice.

Když kurzor umístíte na tečku, zobrazí se název stanice.

Pak kliknutím zobrazíte stav a předpověď počasí.

Chcete-li změnit mapu, kliknutím na zelené tlačítko se znaménkem +mapu přiblížíte, kliknutím na zelené tlačítko se znaménkem – mapu oddálíte a kliknutím na zelené šipky přejdete na sousední mapy.


METAR-TAF: